Terminal Aerodrome Forecast
Issued by NWS

Home | Current Version | Previous Version | Text Only | Print | Product List | Glossary On
Versions: 1 2 3 4 5 6 7 8 9 10 11 12 13 14 15 16 17 18 19 20 21 22 23 24 25 26
663
FTUS46 KOTX 211120
TAFMWH
TAF
KMWH 211120Z 2112/2212 27007KT P6SM FEW200
     FM211600 21005KT P6SM SCT150 BKN250
     FM212100 21007KT P6SM BKN100 BKN150
     FM221000 27005KT P6SM SCT150=

USA.gov is the U.S. government's official web portal to all federal, state and local government web resources and services.